createdAt,value
2022-10-08T00:02:18.946Z,9.17
2022-10-08T00:04:55.389Z,10.20
2022-10-08T00:07:36.943Z,5.57
2022-10-08T00:10:07.690Z,8.33
2022-10-08T00:12:42.817Z,7.63
2022-10-08T00:15:11.805Z,10.57
2022-10-08T00:17:46.884Z,6.27
2022-10-08T00:20:16.900Z,5.97
2022-10-08T00:22:51.826Z,6.43
2022-10-08T00:25:20.158Z,8.23
2022-10-08T00:27:54.770Z,7.57
2022-10-08T00:30:23.121Z,9.63
2022-10-08T00:32:59.982Z,6.07
2022-10-08T00:35:29.958Z,11.73
2022-10-08T00:38:05.867Z,7.43
2022-10-08T00:40:34.282Z,5.87
2022-10-08T00:43:09.789Z,9.40
2022-10-08T00:45:40.159Z,7.13
2022-10-08T00:48:17.779Z,7.57
2022-10-08T00:50:49.429Z,9.93
2022-10-08T00:53:23.807Z,6.23
2022-10-08T00:55:52.232Z,8.90
2022-10-08T00:58:30.828Z,10.37
2022-10-08T01:00:59.803Z,9.03
2022-10-08T01:03:34.803Z,6.23
2022-10-08T01:06:21.218Z,6.10
2022-10-08T01:09:07.862Z,10.20
2022-10-08T01:11:46.351Z,8.00
2022-10-08T01:14:31.905Z,6.57
2022-10-08T01:17:08.696Z,9.43
2022-10-08T01:20:02.796Z,6.97
2022-10-08T01:22:49.890Z,10.33
2022-10-08T01:25:40.873Z,7.37
2022-10-08T01:28:18.420Z,9.13
2022-10-08T01:30:57.874Z,7.20
2022-10-08T01:33:30.647Z,9.37
2022-10-08T01:36:11.822Z,11.30
2022-10-08T01:38:45.024Z,7.53
2022-10-08T01:41:22.886Z,7.10
2022-10-08T01:43:59.306Z,7.20
2022-10-08T01:46:37.013Z,7.93
2022-10-08T01:49:11.641Z,9.10
2022-10-08T01:51:51.982Z,8.70
2022-10-08T01:54:22.077Z,5.97
2022-10-08T01:56:58.851Z,8.63
2022-10-08T01:59:34.003Z,8.03
2022-10-08T02:02:13.968Z,12.40
2022-10-08T02:04:43.174Z,6.53
2022-10-08T02:07:31.345Z,9.57
2022-10-08T02:10:07.899Z,8.67
2022-10-08T02:12:44.022Z,8.80
2022-10-08T02:15:17.882Z,7.93
2022-10-08T02:18:04.092Z,7.87
2022-10-08T02:20:36.930Z,11.87
2022-10-08T02:23:17.092Z,13.73
2022-10-08T02:25:51.166Z,11.73
2022-10-08T02:28:32.209Z,6.90
2022-10-08T02:31:08.238Z,7.70
2022-10-08T02:33:49.059Z,11.33
2022-10-08T02:36:23.177Z,9.73
2022-10-08T02:39:02.038Z,8.90
2022-10-08T02:41:35.267Z,10.50
2022-10-08T02:44:15.951Z,8.90
2022-10-08T02:46:50.107Z,9.73
2022-10-08T02:49:31.121Z,10.87
2022-10-08T02:52:02.448Z,8.13
2022-10-08T02:54:43.879Z,7.30
2022-10-08T02:57:17.292Z,10.43
2022-10-08T02:59:53.095Z,9.00
2022-10-08T03:02:29.820Z,11.53
2022-10-08T03:05:08.972Z,11.17
2022-10-08T03:07:44.961Z,9.47
2022-10-08T03:10:20.970Z,11.83
2022-10-08T03:12:49.793Z,10.50
2022-10-08T03:15:25.089Z,10.50
2022-10-08T03:17:55.420Z,8.70
2022-10-08T03:20:30.927Z,10.40
2022-10-08T03:23:02.161Z,7.23
2022-10-08T03:25:37.104Z,8.73
2022-10-08T03:28:05.878Z,8.03
2022-10-08T03:30:41.184Z,11.50
2022-10-08T03:33:11.284Z,9.03
2022-10-08T03:35:52.148Z,10.97
2022-10-08T03:38:20.359Z,8.67
2022-10-08T03:41:03.161Z,11.33
2022-10-08T03:43:33.665Z,9.23
2022-10-08T03:46:09.156Z,7.33
2022-10-08T03:48:40.243Z,12.40
2022-10-08T03:51:16.995Z,9.13
2022-10-08T03:53:46.141Z,10.27
2022-10-08T03:56:23.953Z,9.10
2022-10-08T03:58:57.208Z,11.33
2022-10-08T04:01:33.114Z,11.90
2022-10-08T04:04:03.274Z,10.70
2022-10-08T04:06:38.396Z,8.20
2022-10-08T04:09:06.876Z,12.97
2022-10-08T04:11:42.119Z,9.67
2022-10-08T04:14:10.878Z,12.00
2022-10-08T04:16:46.177Z,14.27
2022-10-08T04:19:17.661Z,9.43
2022-10-08T04:21:53.063Z,6.87
2022-10-08T04:24:21.628Z,9.60
2022-10-08T04:26:56.164Z,12.37
2022-10-08T04:29:24.524Z,13.67
2022-10-08T04:31:59.220Z,10.30
2022-10-08T04:34:30.260Z,13.23
2022-10-08T04:37:04.986Z,10.33
2022-10-08T04:39:33.373Z,9.73
2022-10-08T04:42:08.274Z,12.53
2022-10-08T04:44:36.599Z,13.27
2022-10-08T04:47:11.017Z,10.33
2022-10-08T04:49:40.824Z,13.63
2022-10-08T04:52:17.192Z,12.50
2022-10-08T04:54:45.697Z,10.43
2022-10-08T04:57:21.007Z,11.20
2022-10-08T05:00:13.545Z,13.63
2022-10-08T05:02:44.596Z,13.27
2022-10-08T05:05:22.194Z,17.50
2022-10-08T05:07:57.680Z,13.57
2022-10-08T05:10:32.180Z,18.60
2022-10-08T05:13:00.448Z,15.97
2022-10-08T05:15:35.297Z,10.77
2022-10-08T05:18:03.712Z,14.83
2022-10-08T05:20:40.271Z,15.07
2022-10-08T05:23:09.192Z,11.53
2022-10-08T05:25:44.115Z,16.33
2022-10-08T05:28:12.630Z,14.60
2022-10-08T05:30:47.102Z,14.47
2022-10-08T05:33:18.019Z,12.47
2022-10-08T05:35:54.061Z,15.17
2022-10-08T05:38:22.418Z,13.27
2022-10-08T05:40:57.105Z,18.00
2022-10-08T05:43:25.710Z,15.30
2022-10-08T05:46:01.149Z,15.30
2022-10-08T05:48:29.794Z,17.73
2022-10-08T05:51:12.144Z,15.53
2022-10-08T05:53:42.101Z,14.43
2022-10-08T05:56:20.259Z,14.50
2022-10-08T05:58:49.962Z,13.10
2022-10-08T06:01:27.191Z,15.67
2022-10-08T06:03:57.885Z,16.27
2022-10-08T06:06:43.163Z,15.60
2022-10-08T06:09:20.678Z,15.60
2022-10-08T06:11:56.205Z,16.93
2022-10-08T06:14:24.978Z,17.57
2022-10-08T06:17:00.144Z,16.03
2022-10-08T06:19:28.617Z,13.47
2022-10-08T06:22:05.127Z,15.83
2022-10-08T06:24:33.779Z,16.10
2022-10-08T06:27:09.089Z,18.13
2022-10-08T06:29:37.447Z,15.47
2022-10-08T06:32:12.156Z,17.13
2022-10-08T06:34:42.150Z,14.00
2022-10-08T06:37:19.169Z,19.33
2022-10-08T06:39:48.628Z,14.07
2022-10-08T06:42:23.284Z,21.53
2022-10-08T06:44:51.841Z,14.80
2022-10-08T06:47:27.379Z,14.17
2022-10-08T06:49:55.703Z,18.73
2022-10-08T06:52:32.171Z,18.97
2022-10-08T06:55:00.698Z,15.23
2022-10-08T06:57:36.184Z,12.90
2022-10-08T07:00:04.859Z,12.43
2022-10-08T07:02:40.423Z,16.33
2022-10-08T07:05:09.930Z,14.23
2022-10-08T07:07:53.223Z,16.97
2022-10-08T07:10:22.116Z,14.97
2022-10-08T07:12:57.209Z,15.80
2022-10-08T07:15:25.691Z,14.30
2022-10-08T07:18:00.239Z,16.23
2022-10-08T07:20:29.031Z,15.80
2022-10-08T07:23:05.145Z,14.80
2022-10-08T07:25:33.958Z,19.33
2022-10-08T07:28:09.517Z,12.50
2022-10-08T07:30:38.234Z,12.33
2022-10-08T07:33:13.308Z,10.67
2022-10-08T07:35:41.702Z,15.63
2022-10-08T07:38:18.316Z,16.37
2022-10-08T07:40:48.972Z,8.60
2022-10-08T07:43:24.324Z,12.67
2022-10-08T07:45:53.267Z,10.87
2022-10-08T07:48:31.614Z,8.33
2022-10-08T07:51:09.275Z,8.33
2022-10-08T07:53:46.129Z,11.60
2022-10-08T07:56:16.447Z,12.27
2022-10-08T07:58:52.166Z,12.33
2022-10-08T08:01:23.295Z,9.83
2022-10-08T08:04:02.336Z,9.83
2022-10-08T08:06:38.690Z,8.00
2022-10-08T08:09:15.303Z,8.93
2022-10-08T08:11:43.712Z,14.37
2022-10-08T08:14:18.173Z,9.60
2022-10-08T08:16:46.799Z,10.87
2022-10-08T08:19:22.203Z,12.33
2022-10-08T08:21:50.623Z,11.30
2022-10-08T08:24:27.356Z,11.43
2022-10-08T08:26:57.830Z,9.77
2022-10-08T08:29:33.402Z,8.33
2022-10-08T08:32:01.827Z,7.87
2022-10-08T08:34:37.208Z,8.37
2022-10-08T08:37:05.759Z,8.10
2022-10-08T08:39:42.242Z,9.97
2022-10-08T08:42:23.923Z,9.27
2022-10-08T08:45:06.246Z,6.80
2022-10-08T08:47:38.764Z,10.87
2022-10-08T08:50:20.304Z,11.27
2022-10-08T08:52:49.583Z,9.33
2022-10-08T08:55:29.249Z,9.83
2022-10-08T08:58:03.024Z,8.87
2022-10-08T09:00:44.387Z,8.47
2022-10-08T09:03:21.257Z,6.23
2022-10-08T09:06:00.521Z,7.47
2022-10-08T09:08:38.834Z,7.17
2022-10-08T09:11:20.439Z,4.77
2022-10-08T09:13:53.297Z,5.07
2022-10-08T09:16:43.529Z,8.47
2022-10-08T09:19:18.342Z,7.13
2022-10-08T09:21:53.478Z,7.43
2022-10-08T09:24:22.121Z,3.87
2022-10-08T09:27:00.352Z,6.47
2022-10-08T09:29:34.195Z,5.97
2022-10-08T09:32:09.439Z,6.47
2022-10-08T09:34:38.542Z,7.07
2022-10-08T09:37:27.431Z,5.13
2022-10-08T09:40:21.780Z,4.97
2022-10-08T09:43:26.479Z,6.20
2022-10-08T09:45:55.384Z,6.80
2022-10-08T09:48:33.408Z,9.83
2022-10-08T09:51:05.355Z,3.83
2022-10-08T09:53:47.296Z,6.87
2022-10-08T09:56:16.947Z,3.93
2022-10-08T09:59:07.357Z,5.77
2022-10-08T10:01:35.601Z,4.00
2022-10-08T10:04:13.371Z,6.60
2022-10-08T10:06:54.834Z,4.43
2022-10-08T10:09:48.450Z,3.93
2022-10-08T10:12:26.184Z,6.60
2022-10-08T10:15:06.463Z,4.43
2022-10-08T10:17:38.569Z,7.53
2022-10-08T10:20:21.426Z,4.73
2022-10-08T10:22:55.908Z,8.10
2022-10-08T10:25:42.496Z,4.43
2022-10-08T10:28:18.474Z,5.70
2022-10-08T10:31:03.569Z,2.77
2022-10-08T10:33:35.771Z,5.80
2022-10-08T10:36:24.329Z,3.47
2022-10-08T10:38:57.261Z,2.80
2022-10-08T10:41:39.512Z,5.53
2022-10-08T10:44:12.845Z,7.27
2022-10-08T10:46:56.345Z,5.47
2022-10-08T10:49:29.173Z,6.40
2022-10-08T10:52:11.515Z,4.03
2022-10-08T10:55:04.265Z,3.30
2022-10-08T10:57:54.323Z,4.93
2022-10-08T11:00:26.272Z,5.13
2022-10-08T11:03:10.593Z,2.30
2022-10-08T11:05:41.504Z,3.30
2022-10-08T11:08:37.346Z,5.17
2022-10-08T11:11:20.029Z,3.77
2022-10-08T11:14:08.514Z,4.33
2022-10-08T11:16:47.583Z,4.77
2022-10-08T11:19:39.409Z,3.77
2022-10-08T11:22:15.640Z,4.57
2022-10-08T11:25:06.390Z,4.77
2022-10-08T11:27:43.130Z,4.00
2022-10-08T11:30:21.389Z,3.10
2022-10-08T11:32:53.701Z,2.90
2022-10-08T11:35:37.408Z,4.93
2022-10-08T11:38:12.973Z,4.50
2022-10-08T11:40:52.545Z,2.40
2022-10-08T11:43:29.388Z,6.77
2022-10-08T11:46:35.490Z,2.63
2022-10-08T11:49:11.650Z,3.77
2022-10-08T11:51:49.598Z,2.83
2022-10-08T11:54:25.356Z,4.47
2022-10-08T11:57:19.443Z,3.10
2022-10-08T11:59:49.928Z,6.17
2022-10-08T12:02:34.508Z,4.77
2022-10-08T12:05:21.283Z,2.43
2022-10-08T12:08:07.488Z,4.67
2022-10-08T12:10:37.144Z,4.00
2022-10-08T12:13:35.452Z,6.27
2022-10-08T12:16:07.027Z,4.20
2022-10-08T12:19:00.490Z,4.53
2022-10-08T12:21:50.667Z,5.47
2022-10-08T12:25:01.442Z,4.40
2022-10-08T12:27:44.292Z,1.80
2022-10-08T12:30:20.555Z,3.67
2022-10-08T12:32:59.130Z,3.90
2022-10-08T12:35:38.589Z,2.90
2022-10-08T12:38:25.653Z,2.63
2022-10-08T12:41:17.780Z,3.90
2022-10-08T12:43:53.610Z,6.93
2022-10-08T12:46:37.731Z,3.87
2022-10-08T12:49:17.308Z,3.73
2022-10-08T12:51:58.459Z,5.97
2022-10-08T12:54:29.305Z,4.43
2022-10-08T12:57:05.463Z,3.97
2022-10-08T12:59:35.939Z,2.33
2022-10-08T13:02:11.690Z,5.87
2022-10-08T13:04:47.933Z,6.50
2022-10-08T13:07:38.509Z,3.70
2022-10-08T13:10:20.509Z,3.00
2022-10-08T13:13:07.590Z,3.40
2022-10-08T13:15:37.813Z,4.27
2022-10-08T13:18:22.461Z,4.03
2022-10-08T13:20:59.182Z,4.00
2022-10-08T13:23:40.743Z,6.30
2022-10-08T13:26:43.110Z,4.37
2022-10-08T13:29:39.476Z,3.03
2022-10-08T13:32:20.974Z,5.50
2022-10-08T13:34:58.503Z,4.33
2022-10-08T13:37:31.551Z,5.37
2022-10-08T13:40:08.683Z,3.20
2022-10-08T13:42:41.917Z,4.23
2022-10-08T13:45:21.666Z,3.20
2022-10-08T13:47:52.542Z,4.00
2022-10-08T13:50:27.527Z,3.63
2022-10-08T13:53:00.508Z,3.40
2022-10-08T13:55:37.521Z,6.17
2022-10-08T13:58:07.855Z,2.83
2022-10-08T14:00:46.715Z,5.20
2022-10-08T14:03:17.091Z,2.83
2022-10-08T14:05:54.581Z,3.47
2022-10-08T14:08:36.397Z,4.67
2022-10-08T14:11:18.705Z,3.97
2022-10-08T14:13:47.035Z,4.17
2022-10-08T14:16:21.616Z,3.77
2022-10-08T14:18:51.686Z,3.20
2022-10-08T14:21:29.637Z,5.07
2022-10-08T14:23:57.947Z,4.57
2022-10-08T14:26:32.563Z,2.80
2022-10-08T14:29:01.367Z,5.50
2022-10-08T14:31:36.763Z,5.47
2022-10-08T14:34:07.265Z,3.10
2022-10-08T14:36:44.553Z,3.50
2022-10-08T14:39:19.565Z,2.43
2022-10-08T14:41:47.897Z,4.80
2022-10-08T14:44:23.795Z,5.43
2022-10-08T14:46:58.725Z,3.40
2022-10-08T14:49:41.521Z,4.07
2022-10-08T14:52:11.561Z,5.17
2022-10-08T14:54:47.538Z,3.63
2022-10-08T14:57:15.754Z,5.30
2022-10-08T14:59:50.542Z,3.20
2022-10-08T15:02:18.788Z,6.97
2022-10-08T15:04:54.541Z,4.60
2022-10-08T15:07:22.683Z,3.80
2022-10-08T15:09:57.559Z,4.43
2022-10-08T15:12:25.704Z,4.73
2022-10-08T15:15:00.565Z,4.83
2022-10-08T15:17:28.650Z,3.50
2022-10-08T15:20:05.611Z,4.23
2022-10-08T15:22:33.750Z,3.67
2022-10-08T15:25:10.486Z,5.77
2022-10-08T15:27:38.630Z,7.30
2022-10-08T15:30:14.594Z,17.73
2022-10-08T15:32:44.735Z,4.53
2022-10-08T15:35:21.511Z,4.50
2022-10-08T15:37:49.765Z,5.80
2022-10-08T15:40:24.574Z,3.60
2022-10-08T15:42:52.696Z,5.13
2022-10-08T15:45:27.584Z,5.07
2022-10-08T15:48:01.922Z,4.23
2022-10-08T15:50:38.584Z,7.90
2022-10-08T15:53:07.020Z,4.50
2022-10-08T15:55:41.600Z,4.90
2022-10-08T15:58:09.947Z,4.80
2022-10-08T16:00:44.632Z,4.23
2022-10-08T16:03:12.744Z,5.13
2022-10-08T16:05:49.575Z,5.03
2022-10-08T16:08:17.660Z,7.83
2022-10-08T16:10:56.128Z,3.70
2022-10-08T16:13:26.234Z,3.50
2022-10-08T16:16:00.600Z,9.03
2022-10-08T16:18:28.684Z,5.57
2022-10-08T16:21:04.575Z,5.87
2022-10-08T16:23:34.494Z,8.20
2022-10-08T16:26:09.757Z,10.27
2022-10-08T16:28:39.602Z,7.37
2022-10-08T16:31:15.666Z,6.30
2022-10-08T16:33:44.280Z,5.23
2022-10-08T16:36:21.638Z,6.87
2022-10-08T16:38:50.088Z,5.63
2022-10-08T16:41:26.626Z,6.00
2022-10-08T16:43:57.542Z,4.93
2022-10-08T16:46:41.664Z,5.33
2022-10-08T16:49:26.358Z,4.73
2022-10-08T16:52:04.913Z,4.87
2022-10-08T16:54:33.790Z,4.27
2022-10-08T16:57:08.657Z,5.23
2022-10-08T16:59:36.818Z,6.47
2022-10-08T17:02:12.752Z,5.73
2022-10-08T17:04:40.942Z,4.67
2022-10-08T17:07:16.645Z,4.93
2022-10-08T17:09:45.200Z,6.40
2022-10-08T17:12:21.826Z,5.53
2022-10-08T17:14:50.340Z,8.83
2022-10-08T17:17:24.649Z,7.53
2022-10-08T17:19:52.814Z,6.57
2022-10-08T17:22:28.684Z,5.27
2022-10-08T17:24:56.827Z,4.80
2022-10-08T17:27:31.665Z,5.10
2022-10-08T17:29:59.820Z,4.80
2022-10-08T17:32:34.645Z,5.33
2022-10-08T17:35:02.711Z,7.03
2022-10-08T17:37:38.647Z,9.73
2022-10-08T17:40:08.029Z,8.10
2022-10-08T17:42:42.664Z,6.67
2022-10-08T17:45:11.317Z,6.87
2022-10-08T17:47:54.690Z,7.40
2022-10-08T17:50:22.897Z,6.07
2022-10-08T17:52:58.698Z,5.10
2022-10-08T17:55:26.743Z,6.80
2022-10-08T17:58:01.688Z,6.20
2022-10-08T18:00:29.780Z,7.63
2022-10-08T18:03:04.775Z,5.80
2022-10-08T18:05:32.872Z,7.90
2022-10-08T18:08:08.711Z,7.80
2022-10-08T18:10:38.869Z,9.57
2022-10-08T18:13:14.895Z,6.07
2022-10-08T18:15:43.081Z,7.53
2022-10-08T18:18:17.703Z,4.80
2022-10-08T18:21:01.715Z,7.73
2022-10-08T18:23:32.191Z,6.97
2022-10-08T18:26:18.723Z,6.93
2022-10-08T18:28:47.805Z,8.53
2022-10-08T18:31:23.799Z,6.70
2022-10-08T18:33:55.414Z,9.27
2022-10-08T18:36:31.718Z,4.67
2022-10-08T18:39:02.871Z,6.97
2022-10-08T18:41:41.732Z,7.90
2022-10-08T18:44:12.637Z,8.07
2022-10-08T18:46:54.730Z,7.27
2022-10-08T18:49:29.495Z,5.77
2022-10-08T18:52:04.752Z,5.40
2022-10-08T18:54:34.456Z,6.17
2022-10-08T18:57:08.717Z,7.73
2022-10-08T18:59:36.800Z,7.10
2022-10-08T19:02:11.881Z,8.77
2022-10-08T19:04:40.197Z,5.87
2022-10-08T19:07:14.816Z,5.80
2022-10-08T19:09:44.239Z,5.97
2022-10-08T19:12:18.759Z,8.30
2022-10-08T19:14:46.922Z,7.20
2022-10-08T19:17:21.773Z,7.50
2022-10-08T19:19:50.319Z,6.03
2022-10-08T19:22:24.776Z,8.93
2022-10-08T19:24:54.235Z,7.20
2022-10-08T19:27:29.809Z,3.90
2022-10-08T19:29:57.822Z,5.53
2022-10-08T19:32:32.792Z,9.87
2022-10-08T19:35:00.829Z,5.60
2022-10-08T19:37:35.795Z,5.40
2022-10-08T19:40:05.942Z,7.23
2022-10-08T19:42:40.788Z,8.10
2022-10-08T19:45:09.736Z,8.27
2022-10-08T19:47:50.806Z,8.43
2022-10-08T19:50:19.107Z,8.30
2022-10-08T19:52:57.326Z,10.37
2022-10-08T19:55:27.210Z,7.47
2022-10-08T19:58:01.806Z,8.97
2022-10-08T20:00:29.886Z,8.77
2022-10-08T20:03:04.845Z,8.43
2022-10-08T20:05:33.643Z,15.23
2022-10-08T20:08:07.779Z,12.67
2022-10-08T20:10:41.820Z,12.73
2022-10-08T20:13:16.822Z,13.43
2022-10-08T20:15:51.123Z,11.50
2022-10-08T20:18:25.815Z,9.33
2022-10-08T20:21:01.744Z,12.17
2022-10-08T20:23:36.807Z,8.50
2022-10-08T20:26:18.178Z,10.47
2022-10-08T20:28:55.858Z,9.37
2022-10-08T20:31:25.525Z,12.47
2022-10-08T20:34:03.830Z,9.13
2022-10-08T20:36:33.059Z,12.13
2022-10-08T20:39:07.836Z,8.83
2022-10-08T20:41:37.296Z,7.50
2022-10-08T20:44:12.847Z,8.73
2022-10-08T20:46:49.128Z,8.10
2022-10-08T20:49:23.846Z,6.93
2022-10-08T20:51:51.879Z,7.27
2022-10-08T20:54:26.843Z,6.20
2022-10-08T20:56:56.225Z,6.70
2022-10-08T20:59:30.843Z,7.80
2022-10-08T21:01:58.926Z,7.67
2022-10-08T21:04:33.837Z,6.23
2022-10-08T21:07:01.906Z,6.57
2022-10-08T21:09:36.861Z,6.23
2022-10-08T21:12:06.452Z,6.30
2022-10-08T21:14:40.883Z,9.53
2022-10-08T21:17:09.070Z,8.90
2022-10-08T21:19:44.011Z,7.67
2022-10-08T21:22:12.041Z,10.17
2022-10-08T21:24:46.878Z,11.57
2022-10-08T21:27:16.320Z,11.53
2022-10-08T21:29:50.908Z,8.53
2022-10-08T21:32:18.956Z,12.07
2022-10-08T21:34:53.914Z,10.90
2022-10-08T21:37:21.942Z,9.50
2022-10-08T21:39:56.856Z,11.00
2022-10-08T21:42:26.305Z,12.33
2022-10-08T21:45:00.886Z,7.30
2022-10-08T21:47:48.986Z,10.73
2022-10-08T21:50:24.035Z,6.43
2022-10-08T21:52:52.061Z,6.30
2022-10-08T21:55:29.070Z,7.80
2022-10-08T21:57:58.475Z,9.63
2022-10-08T22:00:40.993Z,9.17
2022-10-08T22:03:09.085Z,7.13
2022-10-08T22:05:44.061Z,7.03
2022-10-08T22:08:12.108Z,5.80
2022-10-08T22:10:46.893Z,6.47
2022-10-08T22:13:16.532Z,7.97
2022-10-08T22:15:59.031Z,8.27
2022-10-08T22:18:30.435Z,7.53
2022-10-08T22:21:07.919Z,9.77
2022-10-08T22:23:37.161Z,8.80
2022-10-08T22:26:13.949Z,8.67
2022-10-08T22:28:44.186Z,10.13
2022-10-08T22:31:20.939Z,5.60
2022-10-08T22:33:52.952Z,10.40
2022-10-08T22:36:28.983Z,7.83
2022-10-08T22:38:58.272Z,8.23
2022-10-08T22:41:36.002Z,8.43
2022-10-08T22:44:05.893Z,9.43
2022-10-08T22:46:43.948Z,10.07
2022-10-08T22:49:18.882Z,7.23
2022-10-08T22:51:53.948Z,6.57
2022-10-08T22:54:22.198Z,6.90
2022-10-08T22:56:57.135Z,11.47
2022-10-08T22:59:26.660Z,8.93
2022-10-08T23:02:00.960Z,6.47
2022-10-08T23:04:29.064Z,13.17
2022-10-08T23:07:03.970Z,8.33
2022-10-08T23:09:32.073Z,6.57
2022-10-08T23:12:06.995Z,5.27
2022-10-08T23:14:36.657Z,7.87
2022-10-08T23:17:10.969Z,9.80
2022-10-08T23:19:39.295Z,9.30
2022-10-08T23:22:14.131Z,6.43
2022-10-08T23:24:49.007Z,8.20
2022-10-08T23:27:17.252Z,7.50
2022-10-08T23:29:52.976Z,8.03
2022-10-08T23:32:21.006Z,6.87
2022-10-08T23:34:56.041Z,7.13
2022-10-08T23:37:24.141Z,7.10
2022-10-08T23:39:59.109Z,8.10
2022-10-08T23:42:27.183Z,9.60
2022-10-08T23:45:03.215Z,7.53
2022-10-08T23:47:38.181Z,9.60
2022-10-08T23:50:18.987Z,8.20
2022-10-08T23:52:47.418Z,7.57
2022-10-08T23:55:22.010Z,9.03
2022-10-08T23:57:50.047Z,8.33
